createdAt,value
2018-11-20T00:00:09.308Z,74.40
2018-11-20T00:03:08.602Z,74.50
2018-11-20T00:05:56.419Z,74.20
2018-11-20T00:09:01.815Z,74.40
2018-11-20T00:12:01.868Z,74.00
2018-11-20T00:15:01.142Z,74.20
2018-11-20T00:18:00.719Z,74.20
2018-11-20T00:21:01.013Z,74.30
2018-11-20T00:23:41.341Z,74.40
2018-11-20T00:29:04.232Z,74.40
2018-11-20T00:32:03.269Z,74.60
2018-11-20T00:34:44.008Z,74.80
2018-11-20T00:37:44.124Z,74.80
2018-11-20T00:40:43.248Z,75.40
2018-11-20T00:43:43.101Z,74.70
2018-11-20T00:46:45.669Z,74.80
2018-11-20T00:49:26.297Z,74.50
2018-11-20T00:55:07.341Z,74.50
2018-11-20T00:58:06.209Z,74.20
2018-11-20T01:00:46.839Z,74.30
2018-11-20T01:03:48.761Z,74.60
2018-11-20T01:06:29.658Z,74.40
2018-11-20T01:09:35.918Z,74.50
2018-11-20T01:12:35.219Z,74.30
2018-11-20T01:15:23.464Z,74.40
2018-11-20T01:18:23.655Z,74.40
2018-11-20T01:24:04.854Z,74.00
2018-11-20T01:27:01.804Z,74.40
2018-11-20T01:32:33.858Z,74.30
2018-11-20T01:35:25.909Z,74.60
2018-11-20T01:38:25.944Z,74.30
2018-11-20T01:44:06.875Z,74.30
2018-11-20T01:47:06.496Z,74.40
2018-11-20T01:50:08.845Z,74.60
2018-11-20T01:55:31.369Z,74.40
2018-11-20T01:58:33.939Z,74.20
2018-11-20T02:01:33.695Z,74.30
2018-11-20T02:04:36.038Z,74.40
2018-11-20T02:07:42.099Z,74.50
2018-11-20T02:10:41.439Z,74.60
2018-11-20T02:13:47.529Z,74.50
2018-11-20T02:16:47.755Z,74.60
2018-11-20T02:22:11.472Z,75.00
2018-11-20T02:25:18.895Z,75.00
2018-11-20T02:28:00.252Z,75.10
2018-11-20T02:30:59.537Z,74.80
2018-11-20T02:34:01.789Z,74.80
2018-11-20T02:36:42.051Z,74.70
2018-11-20T02:39:41.475Z,74.60
2018-11-20T02:42:40.906Z,74.70
2018-11-20T02:48:28.801Z,75.50
2018-11-20T02:51:28.594Z,74.80
2018-11-20T02:54:23.045Z,74.50
2018-11-20T02:57:25.713Z,74.80
2018-11-20T03:00:25.294Z,74.50
2018-11-20T03:03:05.547Z,74.40
2018-11-20T03:08:38.203Z,74.70
2018-11-20T03:11:38.165Z,74.70
2018-11-20T03:14:37.648Z,74.60
2018-11-20T03:20:09.943Z,75.60
2018-11-20T03:23:09.121Z,74.60
2018-11-20T03:26:08.637Z,75.00
2018-11-20T03:29:07.966Z,74.90
2018-11-20T03:32:07.318Z,74.80
2018-11-20T03:34:55.825Z,74.50
2018-11-20T03:38:02.395Z,74.40
2018-11-20T03:40:43.431Z,74.50
2018-11-20T03:43:40.506Z,74.40
2018-11-20T03:46:39.722Z,74.10
2018-11-20T03:49:42.682Z,74.30
2018-11-20T03:52:41.931Z,73.90
2018-11-20T03:55:41.289Z,74.30
2018-11-20T03:58:43.785Z,74.30
2018-11-20T04:04:24.780Z,74.50
2018-11-20T04:07:28.051Z,74.60
2018-11-20T04:12:59.543Z,74.50
2018-11-20T04:16:02.164Z,74.50
2018-11-20T04:18:43.698Z,74.40
2018-11-20T04:21:37.112Z,74.50
2018-11-20T04:24:46.845Z,74.20
2018-11-20T04:30:17.290Z,74.10
2018-11-20T04:33:11.978Z,73.90
2018-11-20T04:35:52.866Z,74.20
2018-11-20T04:38:37.883Z,74.20
2018-11-20T04:41:18.244Z,74.20
2018-11-20T04:46:48.621Z,74.90
2018-11-20T04:49:39.771Z,75.20
2018-11-20T04:52:31.658Z,75.30
2018-11-20T04:55:23.016Z,75.20
2018-11-20T04:57:55.475Z,75.20
2018-11-20T05:00:48.911Z,75.10
2018-11-20T05:06:09.367Z,75.00
2018-11-20T05:08:54.296Z,75.10
2018-11-20T05:11:46.239Z,75.10
2018-11-20T05:14:45.651Z,74.80
2018-11-20T05:17:33.825Z,74.70
2018-11-20T05:23:16.499Z,74.20
2018-11-20T05:26:06.162Z,74.80
2018-11-20T05:29:00.176Z,75.20
2018-11-20T05:37:50.479Z,74.50
2018-11-20T05:40:49.707Z,74.40
2018-11-20T05:43:48.950Z,74.30
2018-11-20T05:46:45.788Z,74.60
2018-11-20T05:49:45.600Z,74.90
2018-11-20T05:55:08.483Z,75.00
2018-11-20T05:57:58.572Z,74.60
2018-11-20T06:01:01.385Z,74.10
2018-11-20T06:06:46.385Z,74.20
2018-11-20T06:09:45.584Z,74.10
2018-11-20T06:12:45.144Z,74.30
2018-11-20T06:15:25.610Z,74.10
2018-11-20T06:18:25.157Z,74.20
2018-11-20T06:23:37.428Z,74.40
2018-11-20T06:26:36.404Z,74.50
2018-11-20T06:29:36.142Z,74.40
2018-11-20T06:32:19.904Z,74.60
2018-11-20T06:35:18.811Z,74.80
2018-11-20T06:38:21.610Z,74.90
2018-11-20T06:41:10.083Z,74.40
2018-11-20T06:44:17.194Z,74.70
2018-11-20T06:47:17.438Z,74.60
2018-11-20T06:53:04.815Z,74.30
2018-11-20T06:56:10.211Z,74.30
2018-11-20T06:59:09.885Z,74.40
2018-11-20T07:01:51.181Z,73.90
2018-11-20T07:04:50.341Z,74.10
2018-11-20T07:07:30.887Z,74.60
2018-11-20T07:13:32.995Z,74.90
2018-11-20T07:17:16.502Z,74.70
2018-11-20T07:20:22.392Z,74.20
2018-11-20T07:23:24.550Z,74.30
2018-11-20T07:26:27.571Z,74.20
2018-11-20T07:29:27.014Z,74.30
2018-11-20T07:32:32.319Z,74.00
2018-11-20T07:35:32.088Z,74.20
2018-11-20T07:38:22.614Z,73.30
2018-11-20T07:41:28.664Z,74.50
2018-11-20T07:44:28.072Z,74.80
2018-11-20T07:47:24.178Z,74.50
2018-11-20T07:50:22.851Z,74.60
2018-11-20T07:53:22.679Z,75.10
2018-11-20T07:56:22.254Z,75.70
2018-11-20T07:59:09.875Z,75.90
2018-11-20T08:02:08.993Z,75.60
2018-11-20T08:05:08.524Z,76.00
2018-11-20T08:08:08.119Z,76.30
2018-11-20T08:10:59.788Z,76.70
2018-11-20T08:13:59.444Z,77.10
2018-11-20T08:16:58.862Z,76.70
2018-11-20T08:19:57.948Z,76.70
2018-11-20T08:23:04.053Z,76.70
2018-11-20T08:26:03.231Z,76.90
2018-11-20T08:29:02.994Z,78.10
2018-11-20T08:32:02.533Z,77.40
2018-11-20T08:35:01.937Z,77.30
2018-11-20T08:38:04.603Z,77.30
2018-11-20T08:41:03.869Z,78.00
2018-11-20T08:44:03.264Z,78.30
2018-11-20T08:47:02.757Z,77.40
2018-11-20T08:50:02.445Z,77.30
2018-11-20T08:53:01.709Z,77.20
2018-11-20T08:56:01.771Z,77.10
2018-11-20T08:59:04.183Z,77.30
2018-11-20T09:02:03.456Z,77.70
2018-11-20T09:05:02.630Z,77.90
2018-11-20T09:08:02.243Z,77.70
2018-11-20T09:11:01.462Z,77.40
2018-11-20T09:14:01.405Z,77.20
2018-11-20T09:16:57.549Z,77.60
2018-11-20T09:20:00.246Z,77.50
2018-11-20T09:22:59.873Z,77.20
2018-11-20T09:25:59.276Z,76.90
2018-11-20T09:29:01.369Z,75.30
2018-11-20T09:32:02.164Z,76.10
2018-11-20T09:34:53.138Z,76.30
2018-11-20T09:37:55.637Z,76.70
2018-11-20T09:40:55.119Z,77.20
2018-11-20T09:43:54.709Z,76.50
2018-11-20T09:46:54.719Z,76.00
2018-11-20T09:49:44.077Z,76.80
2018-11-20T09:52:44.304Z,76.60
2018-11-20T09:55:46.777Z,76.20
2018-11-20T09:58:35.102Z,76.10
2018-11-20T10:01:37.566Z,76.60
2018-11-20T10:04:37.238Z,76.00
2018-11-20T10:07:36.925Z,74.80
2018-11-20T10:10:36.453Z,75.50
2018-11-20T10:13:36.285Z,75.10
2018-11-20T10:16:35.884Z,75.20
2018-11-20T10:19:25.654Z,75.30
2018-11-20T10:22:25.253Z,76.60
2018-11-20T10:25:24.988Z,75.30
2018-11-20T10:28:24.447Z,75.00
2018-11-20T10:31:23.661Z,74.90
2018-11-20T10:34:22.599Z,74.70
2018-11-20T10:37:25.188Z,74.70
2018-11-20T10:40:24.864Z,74.50
2018-11-20T10:43:27.168Z,74.40
2018-11-20T10:46:26.441Z,74.70
2018-11-20T10:52:56.656Z,74.70
2018-11-20T10:55:56.391Z,74.40
2018-11-20T10:58:58.858Z,74.10
2018-11-20T11:01:58.358Z,74.40
2018-11-20T11:04:58.032Z,74.20
2018-11-20T11:07:58.139Z,75.30
2018-11-20T11:11:00.260Z,75.30
2018-11-20T11:13:54.832Z,74.90
2018-11-20T11:16:57.700Z,75.20
2018-11-20T11:19:56.897Z,74.90
2018-11-20T11:23:00.228Z,74.10
2018-11-20T11:25:55.920Z,74.10
2018-11-20T11:28:55.453Z,74.30
2018-11-20T11:32:01.215Z,73.30
2018-11-20T11:35:00.601Z,74.00
2018-11-20T11:37:59.962Z,74.80
2018-11-20T11:40:59.629Z,73.80
2018-11-20T11:43:58.893Z,73.00
2018-11-20T11:47:01.768Z,73.30
2018-11-20T11:50:01.135Z,72.30
2018-11-20T11:52:48.273Z,71.80
2018-11-20T11:55:48.079Z,70.60
2018-11-20T11:58:47.706Z,71.10
2018-11-20T12:04:42.464Z,71.10
2018-11-20T12:07:47.028Z,72.30
2018-11-20T12:10:41.652Z,70.80
2018-11-20T12:13:44.545Z,71.60
2018-11-20T12:16:43.874Z,71.30
2018-11-20T12:19:41.640Z,71.80
2018-11-20T12:22:44.702Z,71.70
2018-11-20T12:25:40.482Z,71.20
2018-11-20T12:28:39.747Z,70.40
2018-11-20T12:31:39.171Z,70.90
2018-11-20T12:34:41.600Z,71.20
2018-11-20T12:37:43.697Z,70.80
2018-11-20T12:40:39.864Z,70.60
2018-11-20T12:43:39.396Z,70.70
2018-11-20T12:46:39.437Z,70.90
2018-11-20T12:49:39.051Z,70.50
2018-11-20T12:52:38.084Z,71.00
2018-11-20T12:55:44.081Z,71.60
2018-11-20T12:58:43.796Z,72.00
2018-11-20T13:01:40.773Z,72.00
2018-11-20T13:04:40.395Z,71.70
2018-11-20T13:07:40.793Z,72.00
2018-11-20T13:10:39.588Z,73.10
2018-11-20T13:13:38.950Z,73.00
2018-11-20T13:16:38.566Z,73.30
2018-11-20T13:19:38.566Z,73.90
2018-11-20T13:22:40.169Z,73.70
2018-11-20T13:25:38.892Z,73.50
2018-11-20T13:28:38.817Z,73.70
2018-11-20T13:31:41.439Z,74.00
2018-11-20T13:34:40.868Z,73.80
2018-11-20T13:37:37.297Z,74.20
2018-11-20T13:40:38.410Z,73.80
2018-11-20T13:43:31.926Z,73.60
2018-11-20T13:46:31.886Z,73.60
2018-11-20T13:49:34.010Z,73.90
2018-11-20T13:52:24.783Z,74.50
2018-11-20T13:55:27.461Z,74.30
2018-11-20T13:58:26.812Z,74.60
2018-11-20T14:01:26.351Z,74.90
2018-11-20T14:04:26.005Z,74.30
2018-11-20T14:07:25.227Z,73.90
2018-11-20T14:10:24.453Z,74.10
2018-11-20T14:13:29.938Z,74.40
2018-11-20T14:16:35.292Z,73.50
2018-11-20T14:19:34.835Z,72.60
2018-11-20T14:22:34.083Z,72.60
2018-11-20T14:25:40.009Z,73.40
2018-11-20T14:28:36.591Z,73.00
2018-11-20T14:31:42.478Z,72.80
2018-11-20T14:34:41.765Z,73.90
2018-11-20T14:37:41.251Z,73.60
2018-11-20T14:40:43.777Z,74.20
2018-11-20T14:43:43.266Z,74.20
2018-11-20T14:46:43.151Z,74.60
2018-11-20T14:49:43.299Z,74.60
2018-11-20T14:52:43.268Z,74.30
2018-11-20T14:55:41.296Z,74.10
2018-11-20T14:58:40.981Z,73.80
2018-11-20T15:01:40.070Z,73.50
2018-11-20T15:04:39.782Z,73.30
2018-11-20T15:07:39.301Z,73.30
2018-11-20T15:10:44.835Z,73.20
2018-11-20T15:13:50.558Z,74.30
2018-11-20T15:16:49.935Z,75.20
2018-11-20T15:19:49.399Z,76.20
2018-11-20T15:22:48.696Z,75.80
2018-11-20T15:25:40.148Z,75.70
2018-11-20T15:28:39.555Z,75.80
2018-11-20T15:31:38.747Z,75.80
2018-11-20T15:34:38.242Z,75.50
2018-11-20T15:37:37.678Z,75.30
2018-11-20T15:40:40.819Z,75.30
2018-11-20T15:43:43.584Z,75.80
2018-11-20T15:46:43.131Z,75.40
2018-11-20T15:56:46.224Z,76.30
2018-11-20T15:59:45.649Z,76.50
2018-11-20T16:02:45.130Z,76.30
2018-11-20T16:05:44.638Z,76.60
2018-11-20T16:08:43.906Z,75.60
2018-11-20T16:11:41.488Z,75.50
2018-11-20T16:14:43.711Z,75.10
2018-11-20T16:17:43.237Z,74.70
2018-11-20T16:20:30.686Z,74.10
2018-11-20T16:23:37.511Z,74.50
2018-11-20T16:26:37.269Z,74.30
2018-11-20T16:29:37.088Z,74.50
2018-11-20T16:32:36.763Z,74.50
2018-11-20T16:35:24.641Z,74.30
2018-11-20T16:38:24.615Z,75.00
2018-11-20T16:41:24.256Z,75.00
2018-11-20T16:44:24.256Z,74.80
2018-11-20T16:47:16.721Z,74.30
2018-11-20T16:50:22.468Z,74.40
2018-11-20T16:53:22.228Z,74.50
2018-11-20T16:56:21.554Z,75.00
2018-11-20T16:59:20.886Z,75.10
2018-11-20T17:02:23.071Z,75.30
2018-11-20T17:05:28.857Z,74.70
2018-11-20T17:08:31.605Z,74.30
2018-11-20T17:11:31.235Z,73.80
2018-11-20T17:14:27.089Z,73.50
2018-11-20T17:17:26.463Z,73.30
2018-11-20T17:20:32.040Z,73.40
2018-11-20T17:23:31.296Z,73.20
2018-11-20T17:26:36.860Z,72.80
2018-11-20T17:29:36.690Z,72.40
2018-11-20T17:32:34.861Z,72.70
2018-11-20T17:35:40.802Z,72.70
2018-11-20T17:38:40.444Z,73.00
2018-11-20T17:41:40.100Z,72.70
2018-11-20T17:44:37.271Z,72.80
2018-11-20T17:47:37.112Z,72.90
2018-11-20T17:50:36.491Z,72.60
2018-11-20T17:53:35.889Z,73.00
2018-11-20T17:56:38.470Z,73.20
2018-11-20T17:59:37.449Z,73.30
2018-11-20T18:02:40.289Z,73.40
2018-11-20T18:05:39.890Z,73.10
2018-11-20T18:08:39.720Z,73.40
2018-11-20T18:11:39.138Z,73.50
2018-11-20T18:14:38.358Z,73.50
2018-11-20T18:17:38.152Z,73.80
2018-11-20T18:20:37.941Z,73.60
2018-11-20T18:23:37.406Z,73.70
2018-11-20T18:26:43.136Z,73.90
2018-11-20T18:29:42.676Z,74.00
2018-11-20T18:32:42.126Z,74.00
2018-11-20T18:35:41.407Z,74.10
2018-11-20T18:38:41.072Z,74.40
2018-11-20T18:41:40.838Z,74.60
2018-11-20T18:44:43.394Z,75.10
2018-11-20T18:47:43.144Z,75.60
2018-11-20T18:50:31.954Z,75.60
2018-11-20T18:53:28.656Z,76.10
2018-11-20T18:56:28.240Z,76.30
2018-11-20T18:59:28.298Z,76.90
2018-11-20T19:02:27.820Z,76.80
2018-11-20T19:05:27.428Z,77.20
2018-11-20T19:08:26.837Z,77.20
2018-11-20T19:11:26.351Z,77.10
2018-11-20T19:14:25.899Z,76.60
2018-11-20T19:17:25.509Z,76.50
2018-11-20T19:20:24.684Z,76.30
2018-11-20T19:23:24.229Z,76.20
2018-11-20T19:26:23.633Z,75.80
2018-11-20T19:29:23.085Z,76.10
2018-11-20T19:32:22.799Z,75.60
2018-11-20T19:35:22.365Z,75.30
2018-11-20T19:38:25.024Z,75.40
2018-11-20T19:41:24.320Z,75.80
2018-11-20T19:44:23.750Z,76.10
2018-11-20T19:47:17.890Z,75.90
2018-11-20T19:50:10.649Z,76.10
2018-11-20T19:53:05.255Z,75.90
2018-11-20T19:56:07.944Z,75.70
2018-11-20T19:59:07.275Z,75.60
2018-11-20T20:02:06.845Z,75.90
2018-11-20T20:05:06.584Z,75.90
2018-11-20T20:07:54.934Z,75.90
2018-11-20T20:10:54.334Z,75.90
2018-11-20T20:14:00.060Z,76.00
2018-11-20T20:16:59.506Z,75.80
2018-11-20T20:19:58.972Z,76.10
2018-11-20T20:22:58.331Z,77.20
2018-11-20T20:25:57.899Z,77.20
2018-11-20T20:28:57.243Z,76.90
2018-11-20T20:31:49.732Z,76.50
2018-11-20T20:34:40.706Z,76.30
2018-11-20T20:37:37.660Z,76.70
2018-11-20T20:40:40.358Z,76.40
2018-11-20T20:43:39.841Z,76.30
2018-11-20T20:46:39.332Z,76.30
2018-11-20T20:49:25.481Z,76.40
2018-11-20T20:52:25.158Z,76.60
2018-11-20T20:55:31.371Z,76.50
2018-11-20T20:58:30.985Z,76.50
2018-11-20T21:01:33.349Z,76.20
2018-11-20T21:08:05.710Z,76.20
2018-11-20T21:11:05.433Z,76.30
2018-11-20T21:14:04.961Z,76.40
2018-11-20T21:17:04.223Z,76.50
2018-11-20T21:20:03.396Z,76.50
2018-11-20T21:23:06.223Z,76.70
2018-11-20T21:26:05.600Z,76.70
2018-11-20T21:29:05.505Z,77.80
2018-11-20T21:32:04.697Z,78.20
2018-11-20T21:35:10.856Z,78.60
2018-11-20T21:38:09.863Z,79.00
2018-11-20T21:41:06.434Z,79.60
2018-11-20T21:43:52.532Z,80.00
2018-11-20T21:46:52.238Z,79.90
2018-11-20T21:49:58.020Z,79.90
2018-11-20T21:52:58.074Z,79.90
2018-11-20T21:55:57.741Z,79.60
2018-11-20T21:59:03.284Z,79.80
2018-11-20T22:02:03.415Z,79.60
2018-11-20T22:05:09.161Z,79.30
2018-11-20T22:08:14.647Z,79.20
2018-11-20T22:11:17.065Z,79.50
2018-11-20T22:14:04.400Z,79.30
2018-11-20T22:17:03.799Z,80.10
2018-11-20T22:20:03.166Z,80.60
2018-11-20T22:23:02.813Z,81.90
2018-11-20T22:26:02.133Z,83.10
2018-11-20T22:29:01.641Z,82.80
2018-11-20T22:32:04.178Z,83.80
2018-11-20T22:34:56.235Z,84.40
2018-11-20T22:37:56.263Z,84.20
2018-11-20T22:40:55.472Z,83.50
2018-11-20T22:43:55.150Z,82.80
2018-11-20T22:46:54.553Z,82.40
2018-11-20T22:49:44.456Z,82.10
2018-11-20T22:52:44.069Z,82.70
2018-11-20T22:55:43.339Z,82.80
2018-11-20T22:58:42.779Z,83.20
2018-11-20T23:01:45.211Z,83.40
2018-11-20T23:04:44.692Z,83.00
2018-11-20T23:07:44.798Z,82.60
2018-11-20T23:13:33.579Z,81.50
2018-11-20T23:16:14.123Z,81.00
2018-11-20T23:18:54.867Z,81.40
2018-11-20T23:21:34.980Z,81.30
2018-11-20T23:24:16.074Z,81.10
2018-11-20T23:26:56.891Z,80.90
2018-11-20T23:29:36.958Z,80.30
2018-11-20T23:32:15.165Z,80.10
2018-11-20T23:35:02.451Z,80.00
2018-11-20T23:37:43.167Z,80.00
2018-11-20T23:40:23.388Z,80.20
2018-11-20T23:43:03.193Z,80.10
2018-11-20T23:45:43.917Z,79.90
2018-11-20T23:48:24.147Z,79.80
2018-11-20T23:51:04.323Z,79.60
2018-11-20T23:53:44.506Z,79.60
2018-11-20T23:56:25.237Z,79.50
2018-11-20T23:58:53.352Z,79.70
